Time;durP1;ratioP1;P1;durP2;ratioP2;P2;SDS_P1;SDS_P2;PMS_P1;PMS_P2;Temp;Humidity;BMP_temperature;BMP_pressure;BME280_temperature;BME280_humidity;BME280_pressure;Samples;Min_cycle;Max_cycle;Signal;HPM_P1;HPM_P2
2021/08/07 00:01:53;;;;;;;3.72;1.83;;;;;;;14.85;46.79;94677.72;5008644;28;20512;-71
2021/08/07 00:04:18;;;;;;;2.10;2.00;;;;;;;14.87;46.84;94680.16;4987167;28;20725;-71
2021/08/07 00:06:43;;;;;;;2.17;1.75;;;;;;;14.85;46.94;94676.88;5008546;28;20484;-71
2021/08/07 00:09:09;;;;;;;1.63;1.50;;;;;;;14.92;46.27;94677.59;5003704;28;20029;-71
2021/08/07 00:11:34;;;;;;;1.75;1.63;;;;;;;14.86;46.48;94675.84;5008268;28;20041;-71
2021/08/07 00:14:00;;;;;;;4.13;1.70;;;;;;;14.74;46.67;94666.94;4993249;28;20088;-71
2021/08/07 00:16:25;;;;;;;1.35;1.25;;;;;;;14.72;46.71;94673.31;5006934;28;20030;-71
2021/08/07 00:18:50;;;;;;;3.17;1.80;;;;;;;14.56;46.92;94666.75;5007394;28;20033;-71
2021/08/07 00:21:16;;;;;;;2.28;2.00;;;;;;;14.42;47.38;94665.28;5008124;28;20076;-71
2021/08/07 00:23:41;;;;;;;3.97;1.90;;;;;;;14.42;46.97;94667.97;5007013;28;20558;-71
2021/08/07 00:26:07;;;;;;;2.35;1.90;;;;;;;14.21;47.55;94670.88;4990656;28;20072;-71
2021/08/07 00:28:32;;;;;;;1.85;1.75;;;;;;;14.08;47.85;94671.84;5007921;28;20033;-71
2021/08/07 00:30:58;;;;;;;2.22;1.27;;;;;;;14.05;47.81;94674.97;5007769;28;20484;-71
2021/08/07 00:33:23;;;;;;;2.88;2.00;;;;;;;13.99;48.09;94672.38;5008147;28;20411;-71
2021/08/07 00:35:48;;;;;;;2.85;1.90;;;;;;;13.97;48.25;94669.13;5007895;28;20038;-71
2021/08/07 00:38:14;;;;;;;1.85;1.70;;;;;;;13.87;48.67;94675.75;5007031;28;20046;-71
2021/08/07 00:40:39;;;;;;;1.98;1.38;;;;;;;13.86;48.06;94674.13;5008572;28;20034;-71
2021/08/07 00:43:08;;;;;;;2.40;1.33;;;;;;;13.74;48.41;94676.72;5007341;28;20038;-70
2021/08/07 00:45:33;;;;;;;3.05;1.50;;;;;;;13.88;48.23;94672.09;5039468;28;20116;-70
2021/08/07 00:47:58;;;;;;;2.38;1.70;;;;;;;13.88;48.27;94674.75;5006331;28;20080;-72
2021/08/07 00:50:24;;;;;;;2.50;1.95;;;;;;;13.82;48.57;94659.56;5006848;28;20034;-71
2021/08/07 00:52:49;;;;;;;1.55;1.42;;;;;;;13.85;48.68;94658.28;5006455;28;20046;-71
2021/08/07 00:55:15;;;;;;;3.97;1.60;;;;;;;13.89;48.34;94659.50;4989858;28;20088;-71
2021/08/07 00:57:41;;;;;;;1.60;1.50;;;;;;;13.86;48.81;94663.41;5008154;28;20096;-72
2021/08/07 01:00:06;;;;;;;1.50;1.30;;;;;;;13.86;48.33;94658.06;5006698;28;20141;-71
2021/08/07 01:02:33;;;;;;;1.85;1.63;;;;;;;13.82;48.38;94662.22;4994119;28;20120;-71
2021/08/07 01:05:22;;;;;;;1.90;1.80;;;;;;;13.76;48.54;94663.09;5011534;28;20052;-71
2021/08/07 01:07:56;;;;;;;4.38;1.77;;;;;;;13.78;48.38;94663.72;5024428;28;20451;-71
2021/08/07 01:10:28;;;;;;;1.15;1.05;;;;;;;13.75;48.41;94654.28;5011786;28;20040;-71
2021/08/07 01:13:17;;;;;;;4.78;1.85;;;;;;;13.63;48.84;94659.53;5005527;28;20083;-72
2021/08/07 01:15:45;;;;;;;1.95;1.70;;;;;;;13.70;48.44;94654.09;5006315;28;20471;-70
2021/08/07 01:18:12;;;;;;;;;;;;;;;13.72;48.92;94653.88;4978543;28;20058;-71
2021/08/07 01:20:51;;;;;;;2.63;1.47;;;;;;;13.64;48.65;94649.66;5010233;28;20374;-71
2021/08/07 01:23:22;;;;;;;2.42;1.90;;;;;;;13.56;49.75;94651.59;5010110;28;20033;-71
2021/08/07 01:26:00;;;;;;;4.00;1.92;;;;;;;13.56;49.38;94656.94;5011796;28;20479;-71
2021/08/07 01:28:25;;;;;;;;;;;;;;;13.61;49.30;94652.78;5010527;28;20102;-71
2021/08/07 01:30:52;;;;;;;1.50;1.40;;;;;;;13.57;49.19;94650.53;5010787;28;20327;-71
2021/08/07 01:33:18;;;;;;;2.38;1.73;;;;;;;13.62;48.73;94647.22;5010129;28;20180;-71
2021/08/07 01:35:43;;;;;;;1.50;1.40;;;;;;;13.57;49.15;94647.88;4993604;28;20479;-71
2021/08/07 01:38:09;;;;;;;1.33;1.23;;;;;;;13.50;48.91;94651.66;5010692;28;20140;-71
2021/08/07 01:40:34;;;;;;;2.63;1.60;;;;;;;13.35;49.44;94647.47;5010445;28;20045;-71
2021/08/07 01:43:00;;;;;;;2.08;1.42;;;;;;;13.46;49.38;94648.59;5010576;28;20297;-71
2021/08/07 01:45:25;;;;;;;3.55;1.40;;;;;;;13.48;48.75;94640.34;5009836;28;20045;-71
2021/08/07 01:48:12;;;;;;;2.22;1.17;;;;;;;13.30;49.91;94645.44;5010259;28;20038;-71
2021/08/07 01:50:42;;;;;;;1.60;1.50;;;;;;;13.35;49.24;94651.97;5043599;28;20033;-71
2021/08/07 01:53:08;;;;;;;1.42;1.30;;;;;;;13.30;49.34;94644.63;5009554;28;20448;-71
2021/08/07 01:55:37;;;;;;;2.42;1.42;;;;;;;13.22;49.82;94644.91;5009680;28;20029;-71
2021/08/07 01:58:14;;;;;;;1.50;1.38;;;;;;;13.16;49.78;94639.38;5009513;28;20467;-71
2021/08/07 02:00:40;;;;;;;3.13;1.27;;;;;;;13.09;49.91;94635.94;5009643;28;20034;-71
2021/08/07 02:03:08;;;;;;;2.38;1.38;;;;;;;13.09;50.14;94635.94;5009685;28;20101;-71
2021/08/07 02:05:33;;;;;;;1.60;1.35;;;;;;;13.00;50.03;94638.09;5009086;28;20038;-71
2021/08/07 02:07:59;;;;;;;2.45;1.15;;;;;;;12.79;49.98;94626.69;4992606;28;20095;-71
2021/08/07 02:10:24;;;;;;;2.33;1.60;;;;;;;12.74;50.83;94631.03;5009486;28;20058;-71
2021/08/07 02:12:50;;;;;;;4.93;1.50;;;;;;;12.72;51.25;94631.25;4992890;28;20042;-71
2021/08/07 02:15:16;;;;;;;1.30;1.20;;;;;;;12.83;50.46;94624.41;5008943;28;20034;-71
2021/08/07 02:17:42;;;;;;;1.63;1.10;;;;;;;12.83;50.34;94629.75;4976718;28;20126;-71
2021/08/07 02:20:08;;;;;;;1.70;1.50;;;;;;;12.83;50.45;94624.41;5009120;28;20034;-71
2021/08/07 02:22:33;;;;;;;2.70;1.35;;;;;;;12.91;49.98;94626.00;5009314;28;20121;-71
2021/08/07 02:24:59;;;;;;;1.90;1.45;;;;;;;12.93;50.22;94624.72;5008891;28;20098;-71
2021/08/07 02:27:24;;;;;;;4.18;1.40;;;;;;;12.95;50.03;94616.50;5009976;28;20034;-71
2021/08/07 02:29:50;;;;;;;1.42;1.33;;;;;;;12.91;50.51;94609.97;5009700;28;20030;-71
2021/08/07 02:32:15;;;;;;;1.52;1.42;;;;;;;12.77;50.80;94615.41;5008585;28;20040;-71
2021/08/07 02:34:41;;;;;;;1.27;1.15;;;;;;;12.84;50.68;94614.53;4993503;28;20022;-71
2021/08/07 02:37:06;;;;;;;2.28;1.50;;;;;;;12.97;50.29;94613.63;5008305;28;20706;-71
2021/08/07 02:39:32;;;;;;;1.80;1.10;;;;;;;13.09;50.06;94606.56;5009272;28;20479;-70
2021/08/07 02:41:57;;;;;;;2.53;1.05;;;;;;;13.18;49.44;94605.25;5009260;28;20072;-71
2021/08/07 02:44:23;;;;;;;4.40;1.50;;;;;;;13.13;50.00;94598.94;5008604;28;20038;-71
2021/08/07 02:46:48;;;;;;;2.92;1.15;;;;;;;13.20;49.53;94596.19;5008679;28;20088;-71
2021/08/07 02:49:14;;;;;;;1.65;1.25;;;;;;;13.21;49.70;94593.31;5008546;28;20462;-71
2021/08/07 02:51:40;;;;;;;2.55;1.50;;;;;;;13.30;49.65;94591.19;5008677;28;20383;-71
2021/08/07 02:54:05;;;;;;;2.55;1.35;;;;;;;13.35;49.60;94591.31;5009229;28;20030;-71
2021/08/07 02:56:31;;;;;;;2.58;1.45;;;;;;;13.41;49.34;94586.94;5008253;28;20076;-71
2021/08/07 02:58:56;;;;;;;2.15;1.33;;;;;;;13.37;49.72;94583.91;5007322;28;20045;-71
2021/08/07 03:01:22;;;;;;;2.28;1.58;;;;;;;13.38;49.69;94584.72;5008504;28;20045;-71
2021/08/07 03:03:47;;;;;;;1.35;1.25;;;;;;;13.43;49.25;94577.66;5007153;28;20042;-72
2021/08/07 03:06:12;;;;;;;1.40;1.30;;;;;;;13.44;49.39;94581.97;5009921;28;20080;-71
2021/08/07 03:08:38;;;;;;;2.38;1.40;;;;;;;13.63;48.89;94586.53;5009479;28;20034;-71
2021/08/07 03:11:03;;;;;;;1.30;1.20;;;;;;;13.57;48.99;94575.66;5009956;28;20575;-71
2021/08/07 03:13:29;;;;;;;1.10;1.10;;;;;;;13.66;48.74;94586.88;5008318;28;20091;-70
2021/08/07 03:15:54;;;;;;;1.00;0.80;;;;;;;13.73;48.88;94586.81;4991916;28;20034;-70
2021/08/07 03:18:20;;;;;;;1.23;1.10;;;;;;;13.65;48.85;94579.91;5009812;28;20038;-70
2021/08/07 03:20:45;;;;;;;1.58;1.20;;;;;;;13.72;48.60;94579.00;5010057;28;20037;-71
2021/08/07 03:23:10;;;;;;;1.35;1.10;;;;;;;13.82;48.35;94572.09;5010325;28;20057;-71
2021/08/07 03:25:36;;;;;;;2.47;1.25;;;;;;;13.83;48.16;94572.91;5008679;28;20096;-71
2021/08/07 03:28:02;;;;;;;1.98;1.30;;;;;;;13.69;48.70;94565.06;5009617;28;20124;-71
2021/08/07 03:30:28;;;;;;;3.70;1.20;;;;;;;13.73;48.67;94565.41;5008859;28;20246;-71
2021/08/07 03:32:53;;;;;;;1.25;1.05;;;;;;;13.42;49.89;94568.03;5009587;28;20033;-71
2021/08/07 03:35:19;;;;;;;1.52;1.25;;;;;;;13.67;48.82;94571.66;5007974;28;20061;-71
2021/08/07 03:37:44;;;;;;;0.82;0.82;;;;;;;13.78;48.40;94562.91;5008424;28;20079;-71
2021/08/07 03:40:11;;;;;;;1.58;1.05;;;;;;;13.78;48.16;94557.56;5008219;28;20033;-71
2021/08/07 03:42:37;;;;;;;1.17;1.02;;;;;;;13.67;48.69;94545.72;5008497;28;20264;-71
2021/08/07 03:45:07;;;;;;;1.33;1.00;;;;;;;13.68;48.52;94550.06;5007899;28;20042;-71
2021/08/07 03:47:38;;;;;;;0.75;0.70;;;;;;;13.64;48.49;94558.75;5007572;28;20034;-71
2021/08/07 03:50:03;;;;;;;2.17;1.25;;;;;;;13.54;48.46;94564.59;5007926;28;20041;-71
2021/08/07 03:52:30;;;;;;;1.80;1.17;;;;;;;13.37;49.17;94562.53;5009394;28;20065;-71
2021/08/07 03:54:55;;;;;;;1.98;1.20;;;;;;;13.42;48.82;94575.22;5007959;28;20494;-71
2021/08/07 03:57:21;;;;;;;2.65;1.27;;;;;;;13.39;49.04;94573.81;5008738;28;20034;-71
2021/08/07 03:59:46;;;;;;;2.38;1.15;;;;;;;13.54;48.65;94575.31;5007335;28;20053;-71
2021/08/07 04:02:11;;;;;;;2.35;1.20;;;;;;;13.40;48.90;94574.63;5009249;28;20726;-71
2021/08/07 04:04:37;;;;;;;3.33;1.20;;;;;;;13.42;48.82;94565.34;5009043;28;20092;-71
2021/08/07 04:07:02;;;;;;;1.10;1.00;;;;;;;13.42;48.97;94560.00;5008687;28;20041;-71
2021/08/07 04:09:28;;;;;;;2.75;1.20;;;;;;;13.38;49.45;94558.81;5008772;28;20084;-71
2021/08/07 04:11:53;;;;;;;1.25;1.00;;;;;;;13.42;49.34;94553.81;5006559;28;20050;-71
2021/08/07 04:14:19;;;;;;;2.00;1.00;;;;;;;13.50;48.92;94558.88;5009408;28;20037;-71
2021/08/07 04:16:44;;;;;;;1.30;1.20;;;;;;;13.54;48.95;94557.38;5007071;28;20049;-71
2021/08/07 04:19:09;;;;;;;1.15;1.00;;;;;;;13.57;48.76;94553.47;5009020;28;20041;-71
2021/08/07 04:21:35;;;;;;;1.25;1.10;;;;;;;13.58;48.88;94549.75;5008884;28;20033;-71
2021/08/07 04:24:00;;;;;;;2.63;1.35;;;;;;;13.62;48.66;94548.25;5007188;28;20113;-71
2021/08/07 04:26:26;;;;;;;2.55;0.90;;;;;;;13.64;48.64;94540.84;5007354;28;20086;-72
2021/08/07 04:28:51;;;;;;;2.50;1.00;;;;;;;13.72;48.45;94546.91;4990927;28;20098;-72
2021/08/07 04:31:16;;;;;;;2.47;1.30;;;;;;;13.72;48.23;94537.03;5007477;28;20444;-72
2021/08/07 04:33:42;;;;;;;1.13;0.90;;;;;;;13.70;48.39;94549.81;5007554;28;20114;-71
2021/08/07 04:36:07;;;;;;;4.88;1.20;;;;;;;13.76;48.35;94545.41;5008389;28;20105;-71
2021/08/07 04:38:33;;;;;;;2.63;0.90;;;;;;;13.75;48.57;94541.13;5007852;28;20097;-72
2021/08/07 04:40:58;;;;;;;1.40;0.90;;;;;;;13.84;48.17;94547.81;5008117;28;20045;-71
2021/08/07 04:43:23;;;;;;;1.58;1.10;;;;;;;13.90;48.02;94554.94;5008566;28;20045;-71
2021/08/07 04:45:49;;;;;;;1.17;1.00;;;;;;;13.94;48.19;94558.00;5007272;28;20038;-71
2021/08/07 04:48:14;;;;;;;1.38;1.08;;;;;;;14.03;47.39;94556.66;5006107;28;20033;-71
2021/08/07 04:50:40;;;;;;;1.10;1.00;;;;;;;13.78;48.45;94554.03;5008629;28;20096;-71
2021/08/07 04:53:06;;;;;;;4.38;1.02;;;;;;;13.80;48.55;94549.28;4990627;28;20042;-71
2021/08/07 04:55:33;;;;;;;4.00;1.23;;;;;;;13.85;48.41;94560.13;4995086;28;20036;-71
2021/08/07 04:57:58;;;;;;;1.35;1.10;;;;;;;13.98;48.02;94547.66;4991563;28;20087;-71
2021/08/07 05:00:24;;;;;;;2.42;1.02;;;;;;;14.04;48.14;94554.78;5007932;28;20885;-71
2021/08/07 05:02:49;;;;;;;1.70;1.00;;;;;;;14.21;47.98;94553.09;4991177;28;20345;-71
2021/08/07 05:05:15;;;;;;;2.10;1.00;;;;;;;14.30;47.76;94547.44;5006273;28;20045;-71
2021/08/07 05:07:41;;;;;;;1.58;1.08;;;;;;;14.44;47.50;94540.84;5008458;28;20034;-71
2021/08/07 05:10:07;;;;;;;3.97;1.15;;;;;;;14.50;47.78;94536.44;5006511;28;20037;-71
2021/08/07 05:12:33;;;;;;;2.10;1.20;;;;;;;14.50;46.88;94532.94;4990955;28;20064;-71
2021/08/07 05:14:58;;;;;;;1.20;1.10;;;;;;;14.51;47.30;94529.22;5006967;28;20041;-71
2021/08/07 05:17:24;;;;;;;1.85;1.10;;;;;;;14.56;46.96;94522.13;5006914;28;20084;-71
2021/08/07 05:19:50;;;;;;;1.92;1.10;;;;;;;14.69;46.79;94522.97;4990112;28;20088;-71
2021/08/07 05:22:16;;;;;;;2.38;1.20;;;;;;;14.72;46.53;94525.97;5007398;28;20029;-71
2021/08/07 05:24:41;;;;;;;1.65;1.17;;;;;;;14.77;47.02;94530.69;5006446;28;20614;-71
2021/08/07 05:27:07;;;;;;;3.30;1.10;;;;;;;14.93;46.90;94537.19;5007138;28;20042;-71
2021/08/07 05:29:32;;;;;;;1.25;0.77;;;;;;;14.95;46.81;94545.84;5006482;28;20046;-71
2021/08/07 05:31:58;;;;;;;2.83;1.10;;;;;;;15.03;46.65;94547.34;5007068;28;20045;-71
2021/08/07 05:34:23;;;;;;;2.38;0.80;;;;;;;15.13;46.36;94544.09;5008269;28;20096;-71
2021/08/07 05:36:48;;;;;;;1.33;1.00;;;;;;;15.15;46.78;94544.69;5006478;28;20041;-71
2021/08/07 05:39:14;;;;;;;1.05;0.77;;;;;;;15.23;45.77;94549.69;5006272;28;20391;-71
2021/08/07 05:41:39;;;;;;;1.75;1.15;;;;;;;15.12;45.93;94545.13;5008106;28;20022;-70
2021/08/07 05:44:05;;;;;;;2.17;0.88;;;;;;;15.15;46.24;94538.50;5007930;28;20034;-71
2021/08/07 05:46:30;;;;;;;2.10;0.98;;;;;;;15.32;46.43;94547.47;5006743;28;20065;-71
2021/08/07 05:48:56;;;;;;;1.92;1.00;;;;;;;15.40;45.80;94534.75;5006828;28;20041;-71
2021/08/07 05:51:22;;;;;;;1.55;1.08;;;;;;;15.60;45.55;94537.06;5009875;28;20037;-71
2021/08/07 05:53:48;;;;;;;1.00;0.90;;;;;;;15.85;45.53;94535.97;5010302;28;20037;-71
2021/08/07 05:56:13;;;;;;;3.92;1.23;;;;;;;15.80;45.40;94535.84;5011401;28;20400;-71
2021/08/07 05:58:38;;;;;;;2.17;1.05;;;;;;;15.97;45.57;94542.09;5010392;28;20034;-71
2021/08/07 06:01:05;;;;;;;3.88;1.10;;;;;;;16.03;45.02;94540.34;5011150;28;20041;-70
2021/08/07 06:03:30;;;;;;;2.45;1.10;;;;;;;15.99;45.24;94531.97;5009225;28;20199;-71
2021/08/07 06:05:56;;;;;;;2.03;0.98;;;;;;;16.23;44.57;94533.72;5011521;28;20048;-71
2021/08/07 06:08:21;;;;;;;2.25;1.40;;;;;;;16.31;44.27;94532.53;5009672;28;20403;-70
2021/08/07 06:10:46;;;;;;;2.75;1.08;;;;;;;16.19;44.26;94530.72;5009670;28;20049;-71
2021/08/07 06:13:12;;;;;;;1.33;1.00;;;;;;;16.20;44.26;94523.47;5011100;28;20053;-71
2021/08/07 06:15:37;;;;;;;4.43;1.00;;;;;;;16.38;44.38;94522.47;5015752;28;20045;-71
2021/08/07 06:18:03;;;;;;;1.35;1.13;;;;;;;16.43;44.25;94527.94;5011042;28;20045;-71
2021/08/07 06:20:28;;;;;;;2.70;1.00;;;;;;;16.58;43.88;94538.13;5011065;28;20431;-71
2021/08/07 06:22:54;;;;;;;1.90;1.17;;;;;;;15.69;45.15;94524.09;5008951;28;20896;-71
2021/08/07 06:25:19;;;;;;;3.38;1.13;;;;;;;15.95;45.08;94528.09;5003088;28;20042;-71
2021/08/07 06:27:45;;;;;;;1.92;1.00;;;;;;;15.84;45.14;94524.41;5010886;28;20030;-71
2021/08/07 06:30:11;;;;;;;1.63;0.90;;;;;;;15.80;45.80;94525.13;5009793;28;20033;-71
2021/08/07 06:32:36;;;;;;;2.42;1.10;;;;;;;15.20;46.60;94526.00;5008613;28;20064;-71
2021/08/07 06:35:01;;;;;;;5.65;1.40;;;;;;;14.59;48.78;94520.84;5009341;28;20030;-71
2021/08/07 06:37:27;;;;;;;4.20;1.40;;;;;;;14.97;48.18;94527.69;5010058;28;20407;-71
2021/08/07 06:39:52;;;;;;;6.40;1.70;;;;;;;15.44;46.91;94523.31;5009554;28;20108;-71
2021/08/07 06:42:18;;;;;;;2.72;1.48;;;;;;;13.57;51.28;94532.09;5026432;28;20070;-71
2021/08/07 06:44:43;;;;;;;3.08;1.38;;;;;;;15.16;47.91;94526.75;5006661;28;20099;-71
2021/08/07 06:47:08;;;;;;;3.13;1.45;;;;;;;15.30;47.00;94527.31;4994159;28;20086;-71
2021/08/07 06:49:34;;;;;;;3.60;1.17;;;;;;;15.52;46.17;94537.41;5001817;28;20098;-72
2021/08/07 06:51:59;;;;;;;4.15;1.55;;;;;;;13.77;50.95;94536.38;5011670;28;20102;-71
2021/08/07 06:54:25;;;;;;;4.90;1.63;;;;;;;14.43;48.54;94538.38;4989015;28;20082;-71
2021/08/07 06:56:50;;;;;;;4.57;1.90;;;;;;;14.48;48.27;94535.03;5006651;28;20106;-71
2021/08/07 06:59:15;;;;;;;4.90;1.80;;;;;;;15.43;46.69;94535.09;5011334;28;20148;-71
2021/08/07 07:01:41;;;;;;;2.63;1.50;;;;;;;15.19;46.68;94537.78;5005611;28;20676;-71
2021/08/07 07:04:06;;;;;;;3.40;1.35;;;;;;;14.40;49.19;94534.31;5010289;28;20555;-71
2021/08/07 07:06:32;;;;;;;4.35;1.48;;;;;;;15.45;47.13;94527.63;5005353;28;20079;-71
2021/08/07 07:08:57;;;;;;;4.38;1.48;;;;;;;15.95;45.71;94544.19;5004904;28;20544;-71
2021/08/07 07:11:23;;;;;;;3.55;1.10;;;;;;;15.97;45.56;94550.16;5006187;28;20117;-71
2021/08/07 07:13:48;;;;;;;3.72;1.20;;;;;;;16.36;44.85;94546.06;5003060;28;20108;-71
2021/08/07 07:16:14;;;;;;;2.47;1.17;;;;;;;16.61;44.23;94542.19;5010410;28;20572;-71
2021/08/07 07:18:39;;;;;;;3.65;1.30;;;;;;;16.79;43.58;94537.66;4988259;28;20532;-71
2021/08/07 07:21:05;;;;;;;2.15;1.70;;;;;;;16.54;44.31;94542.34;4989074;28;20105;-71
2021/08/07 07:23:30;;;;;;;3.13;1.48;;;;;;;16.13;45.17;94537.03;4988634;28;20082;-71
2021/08/07 07:25:56;;;;;;;4.00;1.55;;;;;;;16.07;45.58;94543.34;5002246;28;20085;-71
2021/08/07 07:28:21;;;;;;;6.53;1.77;;;;;;;16.50;44.28;94544.72;5001787;28;20129;-72
2021/08/07 07:30:47;;;;;;;4.70;1.80;;;;;;;16.30;44.42;94544.31;5003296;28;20406;-72
2021/08/07 07:33:14;;;;;;;5.85;1.70;;;;;;;15.66;46.05;94541.50;5004626;28;20091;-71
2021/08/07 07:35:40;;;;;;;5.95;1.85;;;;;;;14.16;49.83;94549.47;5003090;28;20045;-71
2021/08/07 07:38:05;;;;;;;5.72;1.60;;;;;;;15.66;46.16;94548.72;5002033;28;20037;-72
2021/08/07 07:40:31;;;;;;;4.88;1.63;;;;;;;16.68;44.35;94540.16;5003328;28;20034;-72
2021/08/07 07:42:56;;;;;;;3.88;1.35;;;;;;;17.10;42.72;94536.22;5001703;28;20034;-71
2021/08/07 07:45:21;;;;;;;4.55;1.45;;;;;;;16.90;43.00;94550.19;5001273;28;20038;-72
2021/08/07 07:47:47;;;;;;;3.33;1.45;;;;;;;16.65;43.79;94551.38;5000754;28;20045;-72
2021/08/07 07:50:12;;;;;;;2.78;1.40;;;;;;;15.44;46.73;94544.75;4969591;28;20022;-71
2021/08/07 07:52:38;;;;;;;10.65;1.55;;;;;;;16.12;45.00;94551.53;5003695;28;20038;-72
2021/08/07 07:55:04;;;;;;;4.72;1.65;;;;;;;15.93;45.06;94535.59;5005630;28;20545;-71
2021/08/07 07:57:29;;;;;;;4.10;2.00;;;;;;;16.34;44.48;94542.78;5002700;28;20030;-71
2021/08/07 07:59:55;;;;;;;3.90;1.70;;;;;;;15.48;46.99;94542.44;5000650;28;20515;-71
2021/08/07 08:02:20;;;;;;;4.78;1.70;;;;;;;16.36;44.71;94538.03;4999374;28;20092;-72
2021/08/07 08:04:46;;;;;;;6.45;2.60;;;;;;;16.34;44.59;94540.09;4997929;28;20057;-71
2021/08/07 08:07:11;;;;;;;2.65;1.30;;;;;;;16.66;44.19;94544.16;4998911;28;20041;-71
2021/08/07 08:09:36;;;;;;;6.13;1.90;;;;;;;16.63;44.29;94534.72;5005195;28;20099;-71
2021/08/07 08:12:04;;;;;;;4.03;1.40;;;;;;;17.31;42.67;94525.00;5001806;28;20547;-71
2021/08/07 08:14:30;;;;;;;5.53;1.70;;;;;;;17.64;41.88;94525.97;5004484;28;20078;-71
2021/08/07 08:16:55;;;;;;;5.18;1.80;;;;;;;17.82;41.29;94526.72;5000562;28;20595;-72
2021/08/07 08:19:21;;;;;;;5.90;1.60;;;;;;;17.20;42.95;94516.78;5008199;28;20086;-72
2021/08/07 08:21:46;;;;;;;2.83;1.23;;;;;;;18.32;40.83;94524.84;5004891;28;20637;-72
2021/08/07 08:24:11;;;;;;;7.10;2.00;;;;;;;17.64;41.88;94520.59;5003931;28;20338;-72
2021/08/07 08:26:39;;;;;;;7.05;1.60;;;;;;;17.73;41.05;94519.09;5002666;28;20510;-72
2021/08/07 08:29:04;;;;;;;2.25;1.42;;;;;;;17.59;41.31;94509.75;5000309;28;20104;-72
2021/08/07 08:31:30;;;;;;;6.15;2.00;;;;;;;17.60;41.92;94503.31;5001396;28;20471;-71
2021/08/07 08:33:55;;;;;;;7.35;1.77;;;;;;;18.01;41.32;94514.59;5004022;28;20078;-71
2021/08/07 08:36:21;;;;;;;4.30;1.55;;;;;;;18.21;41.29;94510.47;5002013;28;20114;-72
2021/08/07 08:38:46;;;;;;;5.57;1.55;;;;;;;18.33;40.59;94504.13;5004516;28;20406;-73
2021/08/07 08:41:11;;;;;;;3.83;1.27;;;;;;;16.40;44.46;94520.34;5000085;28;20098;-72
2021/08/07 08:43:38;;;;;;;7.13;1.75;;;;;;;16.28;44.92;94511.53;5001635;28;20102;-72
2021/08/07 08:46:04;;;;;;;3.23;1.47;;;;;;;17.34;42.26;94505.69;5002301;28;20113;-72
2021/08/07 08:48:29;;;;;;;3.50;1.60;;;;;;;17.19;42.96;94493.66;4998728;28;20848;-72
2021/08/07 08:50:55;;;;;;;4.10;1.40;;;;;;;16.45;44.80;94501.63;4984769;28;20172;-73
2021/08/07 08:53:20;;;;;;;2.95;1.15;;;;;;;17.08;42.37;94492.66;4981789;28;20113;-71
2021/08/07 08:55:46;;;;;;;3.78;1.42;;;;;;;16.75;43.74;94500.50;4983313;28;20113;-72
2021/08/07 08:58:14;;;;;;;5.32;1.60;;;;;;;15.60;46.35;94502.19;5006245;28;20105;-71
2021/08/07 09:00:39;;;;;;;;;;;;;;;15.52;46.56;94500.69;5002921;28;20471;-72
2021/08/07 09:03:04;;;;;;;4.80;1.67;;;;;;;14.40;49.41;94515.56;4998432;28;19969;-72
2021/08/07 09:05:31;;;;;;;4.90;1.70;;;;;;;16.07;45.11;94516.50;5000124;28;20118;-72
2021/08/07 09:07:57;;;;;;;3.95;1.70;;;;;;;16.45;44.43;94514.28;5002458;28;20098;-72
2021/08/07 09:10:23;;;;;;;6.05;1.90;;;;;;;16.99;43.04;94516.47;5000522;28;20097;-72
2021/08/07 09:12:53;;;;;;;7.38;1.80;;;;;;;17.51;42.78;94511.81;4965432;28;20408;-72
2021/08/07 09:15:33;;;;;;;5.93;1.65;;;;;;;17.65;42.72;94506.06;4984456;28;20074;-72
2021/08/07 09:18:10;;;;;;;4.78;1.60;;;;;;;17.47;41.92;94502.63;4997084;28;20483;-72
2021/08/07 09:20:36;;;;;;;3.30;1.38;;;;;;;17.57;42.39;94504.63;5002630;28;20033;-72
2021/08/07 09:23:01;;;;;;;5.93;1.60;;;;;;;18.04;40.60;94508.69;4992440;28;20123;-72
2021/08/07 09:25:26;;;;;;;4.35;1.60;;;;;;;16.19;45.49;94503.88;5003578;28;20486;-71
2021/08/07 09:27:52;;;;;;;3.08;1.80;;;;;;;17.38;42.58;94496.06;5004652;28;20038;-72
2021/08/07 09:30:18;;;;;;;7.18;1.77;;;;;;;18.67;40.31;94499.31;5004104;28;20077;-72
2021/08/07 09:32:50;;;;;;;4.60;1.70;;;;;;;19.21;39.49;94496.75;5005785;28;20110;-72
2021/08/07 09:35:21;;;;;;;4.38;1.67;;;;;;;18.62;40.03;94507.38;5003900;28;20810;-72
2021/08/07 09:37:50;;;;;;;4.40;1.75;;;;;;;19.26;39.67;94510.25;5003734;28;20102;-72
2021/08/07 09:40:16;;;;;;;5.85;1.52;;;;;;;19.61;38.43;94493.75;4989691;28;20181;-72
2021/08/07 09:42:52;;;;;;;3.97;1.40;;;;;;;19.53;37.65;94490.47;5006056;28;20086;-72
2021/08/07 09:45:17;;;;;;;6.57;1.98;;;;;;;19.61;37.20;94489.13;5004100;28;20104;-72
2021/08/07 09:47:46;;;;;;;4.82;1.90;;;;;;;19.32;37.81;94490.38;5003586;28;20086;-72
2021/08/07 09:50:30;;;;;;;5.43;1.77;;;;;;;19.70;37.67;94492.16;5005586;28;20539;-72
2021/08/07 09:52:56;;;;;;;5.55;1.70;;;;;;;19.67;37.29;94498.06;5004723;28;20101;-72
2021/08/07 09:55:22;;;;;;;5.45;1.95;;;;;;;17.34;41.51;94495.72;5007263;28;20085;-73
2021/08/07 09:58:00;;;;;;;4.40;1.80;;;;;;;18.71;39.64;94499.63;5004153;28;20110;-72
2021/08/07 10:00:40;;;;;;;3.65;1.63;;;;;;;19.74;38.09;94493.25;5003917;28;20114;-72
2021/08/07 10:03:19;;;;;;;4.72;1.80;;;;;;;19.32;38.30;94494.94;5003741;28;20165;-72
2021/08/07 10:05:45;;;;;;;7.57;1.50;;;;;;;19.64;37.91;94495.91;4999178;28;20134;-72
2021/08/07 10:08:11;;;;;;;5.43;1.80;;;;;;;18.10;40.86;94482.63;5009016;28;20106;-72
2021/08/07 10:10:37;;;;;;;4.78;1.58;;;;;;;19.07;39.90;94475.63;5004043;28;20565;-72
2021/08/07 10:13:02;;;;;;;4.70;1.90;;;;;;;19.82;37.56;94467.63;4982057;28;20195;-72
2021/08/07 10:15:28;;;;;;;4.10;1.77;;;;;;;18.79;38.50;94458.72;5036603;28;20085;-72
2021/08/07 10:17:54;;;;;;;6.40;1.83;;;;;;;18.07;39.67;94458.09;5004025;28;20117;-72
2021/08/07 10:20:20;;;;;;;4.28;1.90;;;;;;;19.79;36.58;94458.16;4986924;28;20098;-71
2021/08/07 10:22:45;;;;;;;4.20;1.73;;;;;;;18.74;38.93;94465.97;5035053;28;20076;-72
2021/08/07 10:25:11;;;;;;;3.78;1.77;;;;;;;19.75;36.97;94459.75;5017362;28;20098;-72
2021/08/07 10:27:37;;;;;;;5.57;1.85;;;;;;;17.78;41.19;94467.22;5005922;28;20157;-71
2021/08/07 10:30:03;;;;;;;6.07;1.65;;;;;;;19.95;36.89;94456.31;4991067;28;20090;-71
2021/08/07 10:32:28;;;;;;;6.73;1.90;;;;;;;18.60;39.28;94465.59;5009903;28;20185;-72
2021/08/07 10:34:54;;;;;;;4.20;1.73;;;;;;;17.89;40.97;94454.69;5005176;28;20543;-72
2021/08/07 10:37:20;;;;;;;5.30;1.70;;;;;;;18.54;40.54;94452.06;4987160;28;20494;-72
2021/08/07 10:39:45;;;;;;;6.90;1.80;;;;;;;19.91;37.65;94454.41;4988073;28;20124;-72
2021/08/07 10:42:14;;;;;;;4.15;1.75;;;;;;;19.28;37.36;94462.25;5003911;28;20018;-72
2021/08/07 10:44:41;;;;;;;4.45;1.77;;;;;;;18.74;37.82;94449.78;4969556;28;20511;-72
2021/08/07 10:47:06;;;;;;;;;;;;;;;19.92;36.36;94450.63;5002910;28;20600;-71
2021/08/07 10:49:39;;;;;;;3.77;1.53;;;;;;;19.70;36.55;94457.03;5002978;28;19967;-72
2021/08/07 10:52:20;;;;;;;4.43;1.70;;;;;;;16.58;41.81;94462.91;5015687;28;20404;-72
2021/08/07 10:54:45;;;;;;;5.78;1.60;;;;;;;18.85;37.59;94462.28;5005098;28;20113;-72
2021/08/07 10:57:36;;;;;;;4.30;1.58;;;;;;;18.19;36.76;94456.06;5003472;28;20041;-72
2021/08/07 11:00:25;;;;;;;4.80;1.60;;;;;;;17.60;38.87;94449.47;5002377;28;20529;-72
2021/08/07 11:03:10;;;;;;;3.70;1.67;;;;;;;18.64;38.18;94437.88;4998593;28;20030;-72
2021/08/07 11:05:51;;;;;;;5.10;1.70;;;;;;;18.96;37.27;94441.56;5002499;28;20041;-72
2021/08/07 11:08:17;;;;;;;4.10;1.55;;;;;;;18.70;37.76;94441.41;4999803;28;20247;-71
2021/08/07 11:10:43;;;;;;;4.70;1.67;;;;;;;18.89;38.08;94440.97;5000552;28;20142;-71
2021/08/07 11:13:24;;;;;;;5.10;1.70;;;;;;;18.89;38.00;94440.97;5034780;28;20100;-70
2021/08/07 11:16:35;;;;;;;4.63;1.52;;;;;;;18.70;37.54;94449.50;5003432;28;20061;-71
2021/08/07 11:19:23;;;;;;;2.85;1.42;;;;;;;19.20;38.27;94436.59;5006777;28;20045;-71
2021/08/07 11:21:52;;;;;;;3.40;1.45;;;;;;;19.47;37.96;94445.63;5004551;28;20225;-71
2021/08/07 11:24:49;;;;;;;5.57;1.90;;;;;;;19.75;37.31;94448.97;5005364;28;20566;-71
2021/08/07 11:27:15;;;;;;;4.32;1.70;;;;;;;20.03;36.18;94444.22;5002914;28;20521;-71
2021/08/07 11:30:18;;;;;;;5.80;2.22;;;;;;;18.96;38.35;94446.97;5004035;28;20042;-70
2021/08/07 11:32:56;;;;;;;5.90;1.80;;;;;;;19.90;36.75;94439.28;5004190;28;20049;-71
2021/08/07 11:35:30;;;;;;;4.93;1.80;;;;;;;20.77;35.67;94443.16;5002600;28;20037;-71